Time;durP1;ratioP1;P1;durP2;ratioP2;P2;SDS_P1;SDS_P2;PMS_P1;PMS_P2;Temp;Humidity;BMP_temperature;BMP_pressure;BME280_temperature;BME280_humidity;BME280_pressure;Samples;Min_cycle;Max_cycle;Signal;HPM_P1;HPM_P2
2023/04/27 00:00:59;;;;;;;10.43;9.15;;;;;;;;;;5073741;28;20044;-68
2023/04/27 00:03:27;;;;;;;12.65;8.70;;;;;;;;;;5069818;28;20110;-68
2023/04/27 00:05:53;;;;;;;11.98;8.70;;;;;;;;;;5073433;28;20055;-68
2023/04/27 00:08:20;;;;;;;15.45;9.48;;;;;;;;;;5068483;28;20539;-68
2023/04/27 00:10:47;;;;;;;13.50;9.25;;;;;;;;;;5073472;28;20072;-68
2023/04/27 00:13:13;;;;;;;13.98;8.98;;;;;;;;;;5066506;28;20048;-68
2023/04/27 00:15:39;;;;;;;12.90;8.93;;;;;;;;;;5073453;28;20052;-68
2023/04/27 00:18:06;;;;;;;15.02;9.35;;;;;;;;;;5063838;28;20052;-68
2023/04/27 00:20:32;;;;;;;12.98;8.90;;;;;;;;;;5072683;28;20456;-68
2023/04/27 00:22:59;;;;;;;15.40;9.65;;;;;;;;;;5063071;28;20529;-68
2023/04/27 00:25:25;;;;;;;13.05;9.38;;;;;;;;;;5073132;28;20131;-68
2023/04/27 00:27:52;;;;;;;14.52;9.07;;;;;;;;;;5065721;28;20049;-68
2023/04/27 00:30:18;;;;;;;13.75;9.63;;;;;;;;;;5072559;28;20049;-68
2023/04/27 00:32:45;;;;;;;13.52;9.43;;;;;;;;;;5061321;28;20047;-67
2023/04/27 00:35:11;;;;;;;15.68;9.95;;;;;;;;;;5072895;28;20097;-67
2023/04/27 00:37:37;;;;;;;15.57;9.90;;;;;;;;;;5060353;28;20147;-67
2023/04/27 00:40:06;;;;;;;18.67;10.35;;;;;;;;;;5072313;28;20044;-68
2023/04/27 00:42:33;;;;;;;16.55;10.10;;;;;;;;;;5059452;28;20141;-68
2023/04/27 00:45:00;;;;;;;13.85;9.18;;;;;;;;;;5072864;28;20395;-68
2023/04/27 00:47:27;;;;;;;14.98;9.50;;;;;;;;;;5049888;28;20055;-67
2023/04/27 00:49:54;;;;;;;12.85;8.65;;;;;;;;;;5069249;28;20048;-68
2023/04/27 00:52:21;;;;;;;15.20;9.45;;;;;;;;;;5061128;28;20045;-67
2023/04/27 00:54:49;;;;;;;14.02;9.35;;;;;;;;;;5069494;28;20312;-67
2023/04/27 00:57:15;;;;;;;12.93;9.10;;;;;;;;;;5059796;28;20065;-67
2023/04/27 00:59:42;;;;;;;16.83;10.13;;;;;;;;;;5066664;28;20155;-68
2023/04/27 01:02:08;;;;;;;13.45;9.05;;;;;;;;;;5069856;28;20059;-67
2023/04/27 01:04:36;;;;;;;13.80;9.38;;;;;;;;;;5072369;28;20041;-68
2023/04/27 01:07:02;;;;;;;13.57;9.40;;;;;;;;;;5068844;28;20464;-67
2023/04/27 01:09:29;;;;;;;14.00;9.55;;;;;;;;;;5071857;28;20052;-68
2023/04/27 01:11:57;;;;;;;12.07;8.70;;;;;;;;;;5068083;28;20048;-68
2023/04/27 01:14:23;;;;;;;13.00;8.48;;;;;;;;;;5071129;28;20044;-67
2023/04/27 01:16:50;;;;;;;15.50;9.27;;;;;;;;;;5066596;28;20397;-68
2023/04/27 01:19:17;;;;;;;16.30;9.50;;;;;;;;;;5070390;28;20423;-68
2023/04/27 01:21:43;;;;;;;13.77;9.05;;;;;;;;;;5065841;28;20049;-68
2023/04/27 01:24:09;;;;;;;13.07;8.85;;;;;;;;;;5071826;28;20053;-68
2023/04/27 01:26:36;;;;;;;15.40;8.27;;;;;;;;;;5066206;28;20136;-68
2023/04/27 01:29:02;;;;;;;15.88;9.02;;;;;;;;;;5070650;28;20040;-68
2023/04/27 01:31:29;;;;;;;13.95;8.63;;;;;;;;;;5067200;28;20124;-68
2023/04/27 01:33:55;;;;;;;15.23;9.32;;;;;;;;;;5063360;28;20487;-67
2023/04/27 01:36:22;;;;;;;13.13;8.80;;;;;;;;;;5053928;28;20426;-67
2023/04/27 01:38:48;;;;;;;11.60;7.85;;;;;;;;;;5062560;28;20052;-68
2023/04/27 01:41:14;;;;;;;10.85;8.82;;;;;;;;;;5062535;28;20044;-68
2023/04/27 01:43:42;;;;;;;12.02;8.30;;;;;;;;;;5068320;28;20041;-68
2023/04/27 01:46:10;;;;;;;11.63;8.80;;;;;;;;;;5070715;28;20075;-68
2023/04/27 01:48:37;;;;;;;15.70;9.15;;;;;;;;;;5054212;28;20044;-68
2023/04/27 01:51:03;;;;;;;12.65;8.80;;;;;;;;;;5071154;28;20051;-68
2023/04/27 01:53:30;;;;;;;11.50;8.43;;;;;;;;;;5065290;28;20044;-68
2023/04/27 01:55:58;;;;;;;12.65;8.30;;;;;;;;;;5071488;28;20059;-67
2023/04/27 01:58:24;;;;;;;12.25;7.78;;;;;;;;;;5065264;28;20151;-67
2023/04/27 02:00:51;;;;;;;12.43;8.45;;;;;;;;;;5071303;28;20048;-68
2023/04/27 02:03:17;;;;;;;10.38;8.70;;;;;;;;;;5064423;28;20051;-68
2023/04/27 02:05:44;;;;;;;11.30;8.18;;;;;;;;;;5071324;28;20049;-68
2023/04/27 02:08:10;;;;;;;9.40;8.13;;;;;;;;;;5063333;28;20059;-68
2023/04/27 02:10:37;;;;;;;11.25;8.40;;;;;;;;;;5071156;28;20046;-68
2023/04/27 02:13:03;;;;;;;11.93;7.47;;;;;;;;;;5062853;28;20419;-68
2023/04/27 02:15:29;;;;;;;11.25;7.93;;;;;;;;;;5071138;28;20044;-68
2023/04/27 02:17:57;;;;;;;9.98;7.43;;;;;;;;;;5061295;28;20048;-68
2023/04/27 02:20:23;;;;;;;12.00;8.82;;;;;;;;;;5071047;28;20542;-68
2023/04/27 02:22:52;;;;;;;14.55;8.35;;;;;;;;;;5052660;28;20052;-67
2023/04/27 02:25:18;;;;;;;11.75;8.35;;;;;;;;;;5068491;28;20424;-67
2023/04/27 02:27:45;;;;;;;9.60;8.00;;;;;;;;;;5049682;28;20066;-68
2023/04/27 02:30:12;;;;;;;11.68;8.15;;;;;;;;;;5071086;28;20055;-68
2023/04/27 02:32:40;;;;;;;10.50;8.10;;;;;;;;;;5049327;28;20053;-68
2023/04/27 02:35:07;;;;;;;9.38;7.57;;;;;;;;;;5071175;28;20048;-68
2023/04/27 02:37:33;;;;;;;11.53;8.17;;;;;;;;;;5047265;28;20064;-68
2023/04/27 02:40:00;;;;;;;9.50;7.45;;;;;;;;;;5071181;28;20407;-67
2023/04/27 02:42:26;;;;;;;9.68;7.78;;;;;;;;;;5058405;28;20056;-68
2023/04/27 02:44:53;;;;;;;10.13;7.90;;;;;;;;;;5069460;28;20044;-68
2023/04/27 02:47:19;;;;;;;14.35;8.43;;;;;;;;;;5059046;28;20415;-68
2023/04/27 02:49:46;;;;;;;11.98;8.18;;;;;;;;;;5067476;28;20059;-68
2023/04/27 02:52:12;;;;;;;9.73;7.85;;;;;;;;;;5068462;28;20074;-68
2023/04/27 02:54:38;;;;;;;9.10;7.85;;;;;;;;;;5071198;28;20062;-68
2023/04/27 02:57:05;;;;;;;10.20;7.07;;;;;;;;;;5067303;28;20198;-68
2023/04/27 02:59:31;;;;;;;12.18;7.95;;;;;;;;;;5070357;28;20052;-68
2023/04/27 03:01:58;;;;;;;11.07;7.43;;;;;;;;;;5066725;28;20052;-68
2023/04/27 03:04:24;;;;;;;9.80;7.43;;;;;;;;;;5070298;28;20053;-68
2023/04/27 03:06:51;;;;;;;11.90;7.60;;;;;;;;;;5065558;28;20045;-68
2023/04/27 03:09:17;;;;;;;11.98;8.25;;;;;;;;;;5069839;28;20051;-68
2023/04/27 03:11:44;;;;;;;11.32;7.97;;;;;;;;;;5064744;28;20048;-68
2023/04/27 03:14:11;;;;;;;9.18;7.03;;;;;;;;;;5070854;28;20136;-68
2023/04/27 03:16:37;;;;;;;9.95;7.40;;;;;;;;;;5064230;28;20399;-68
2023/04/27 03:19:04;;;;;;;10.15;7.60;;;;;;;;;;5068721;28;20511;-68
2023/04/27 03:21:31;;;;;;;7.97;7.18;;;;;;;;;;5065834;28;20401;-68
2023/04/27 03:23:57;;;;;;;8.63;7.03;;;;;;;;;;5068904;28;20051;-68
2023/04/27 03:26:23;;;;;;;9.60;7.20;;;;;;;;;;5070452;28;20049;-67
2023/04/27 03:28:50;;;;;;;11.80;7.60;;;;;;;;;;5069213;28;20591;-68
2023/04/27 03:31:16;;;;;;;10.45;6.97;;;;;;;;;;5071785;28;20400;-68
2023/04/27 03:33:42;;;;;;;8.85;7.95;;;;;;;;;;5068070;28;20460;-68
2023/04/27 03:36:12;;;;;;;11.35;9.15;;;;;;;;;;5043994;28;20058;-68
2023/04/27 03:38:38;;;;;;;13.07;8.88;;;;;;;;;;5064567;28;20140;-68
2023/04/27 03:41:04;;;;;;;11.35;8.55;;;;;;;;;;5073110;28;20052;-68
2023/04/27 03:43:31;;;;;;;11.93;8.93;;;;;;;;;;5055160;28;20055;-68
2023/04/27 03:45:57;;;;;;;12.70;9.32;;;;;;;;;;5073853;28;20051;-68
2023/04/27 03:48:23;;;;;;;11.38;8.00;;;;;;;;;;5052451;28;20119;-68
2023/04/27 03:50:50;;;;;;;15.13;9.48;;;;;;;;;;5073545;28;20407;-68
2023/04/27 03:53:17;;;;;;;13.82;9.18;;;;;;;;;;5070399;28;20120;-68
2023/04/27 03:55:43;;;;;;;13.13;9.68;;;;;;;;;;5073602;28;20131;-68
2023/04/27 03:58:10;;;;;;;15.20;9.68;;;;;;;;;;5068730;28;20090;-68
2023/04/27 04:00:37;;;;;;;15.32;9.95;;;;;;;;;;5073554;28;20059;-68
2023/04/27 04:03:04;;;;;;;13.77;10.33;;;;;;;;;;5067619;28;20468;-68
2023/04/27 04:05:31;;;;;;;12.90;9.90;;;;;;;;;;5073598;28;20076;-68
2023/04/27 04:07:57;;;;;;;11.35;9.88;;;;;;;;;;5067888;28;20132;-68
2023/04/27 04:10:24;;;;;;;12.73;9.93;;;;;;;;;;5073036;28;20456;-68
2023/04/27 04:12:51;;;;;;;13.80;9.97;;;;;;;;;;5067534;28;20048;-68
2023/04/27 04:15:18;;;;;;;14.15;10.45;;;;;;;;;;5073295;28;20131;-68
2023/04/27 04:17:46;;;;;;;15.30;10.20;;;;;;;;;;5065879;28;20052;-68
2023/04/27 04:20:12;;;;;;;13.23;10.50;;;;;;;;;;5073033;28;20048;-68
2023/04/27 04:22:39;;;;;;;11.30;9.77;;;;;;;;;;5060487;28;20049;-68
2023/04/27 04:25:05;;;;;;;17.02;10.32;;;;;;;;;;5073266;28;20404;-68
2023/04/27 04:27:32;;;;;;;15.70;10.55;;;;;;;;;;5058506;28;20078;-68
2023/04/27 04:29:59;;;;;;;15.73;11.38;;;;;;;;;;5072886;28;20395;-68
2023/04/27 04:32:28;;;;;;;15.38;10.73;;;;;;;;;;5056862;28;20407;-68
2023/04/27 04:34:55;;;;;;;14.13;10.75;;;;;;;;;;5071608;28;20045;-68
2023/04/27 04:37:22;;;;;;;15.18;11.25;;;;;;;;;;5055255;28;20488;-68
2023/04/27 04:39:48;;;;;;;14.10;11.43;;;;;;;;;;5072429;28;20049;-68
2023/04/27 04:42:15;;;;;;;14.40;10.73;;;;;;;;;;5053620;28;20049;-68
2023/04/27 04:44:41;;;;;;;16.52;10.88;;;;;;;;;;5072016;28;20058;-68
2023/04/27 04:47:11;;;;;;;16.65;11.80;;;;;;;;;;5060569;28;20045;-68
2023/04/27 04:49:37;;;;;;;15.48;12.40;;;;;;;;;;5070229;28;20155;-68
2023/04/27 04:52:03;;;;;;;15.13;12.07;;;;;;;;;;5069993;28;20080;-68
2023/04/27 04:54:30;;;;;;;18.00;13.15;;;;;;;;;;5072589;28;20061;-68
2023/04/27 04:57:01;;;;;;;17.58;12.65;;;;;;;;;;5068204;28;20049;-68
2023/04/27 04:59:27;;;;;;;19.50;12.55;;;;;;;;;;5071865;28;20311;-68
2023/04/27 05:01:57;;;;;;;20.88;13.63;;;;;;;;;;5066901;28;20045;-68
2023/04/27 05:04:23;;;;;;;22.35;14.35;;;;;;;;;;5071677;28;20048;-68
2023/04/27 05:06:50;;;;;;;21.25;13.95;;;;;;;;;;5065792;28;20089;-68
2023/04/27 05:09:17;;;;;;;18.13;13.70;;;;;;;;;;5070901;28;20502;-68
2023/04/27 05:11:43;;;;;;;19.42;13.85;;;;;;;;;;5062904;28;20841;-68
2023/04/27 05:14:10;;;;;;;20.52;14.05;;;;;;;;;;5072035;28;20148;-68
2023/04/27 05:16:36;;;;;;;19.65;13.45;;;;;;;;;;5066171;28;20052;-68
2023/04/27 05:19:04;;;;;;;19.60;13.68;;;;;;;;;;5070902;28;20119;-68
2023/04/27 05:21:31;;;;;;;18.95;13.60;;;;;;;;;;5067056;28;20051;-68
2023/04/27 05:23:57;;;;;;;23.02;13.98;;;;;;;;;;5068375;28;20051;-68
2023/04/27 05:26:24;;;;;;;18.63;13.30;;;;;;;;;;5066347;28;20553;-68
2023/04/27 05:28:50;;;;;;;20.13;12.73;;;;;;;;;;5062935;28;20135;-68
2023/04/27 05:31:16;;;;;;;18.20;13.38;;;;;;;;;;5068668;28;20059;-68
2023/04/27 05:33:43;;;;;;;18.85;13.45;;;;;;;;;;5066025;28;20076;-68
2023/04/27 05:36:09;;;;;;;21.15;13.82;;;;;;;;;;5069923;28;20411;-68
2023/04/27 05:38:38;;;;;;;18.88;13.95;;;;;;;;;;5061993;28;20048;-68
2023/04/27 05:41:06;;;;;;;19.23;14.35;;;;;;;;;;5070938;28;20044;-68
2023/04/27 05:43:33;;;;;;;19.23;14.07;;;;;;;;;;5061000;28;20462;-68
2023/04/27 05:46:00;;;;;;;20.48;13.68;;;;;;;;;;5069900;28;20122;-68
2023/04/27 05:48:26;;;;;;;23.50;14.27;;;;;;;;;;5058564;28;20056;-68
2023/04/27 05:51:02;;;;;;;20.27;14.82;;;;;;;;;;5071830;28;20055;-68
2023/04/27 05:53:29;;;;;;;20.25;14.05;;;;;;;;;;5068951;28;20055;-68
2023/04/27 05:55:57;;;;;;;21.23;15.18;;;;;;;;;;5071293;28;20488;-68
2023/04/27 05:58:24;;;;;;;18.48;14.23;;;;;;;;;;5067578;28;20478;-68
2023/04/27 06:00:51;;;;;;;18.00;15.20;;;;;;;;;;5071565;28;20060;-68
2023/04/27 06:03:17;;;;;;;20.80;15.13;;;;;;;;;;5066184;28;20140;-73
2023/04/27 06:05:44;;;;;;;21.98;15.57;;;;;;;;;;5071206;28;20125;-68
2023/04/27 06:08:11;;;;;;;19.80;16.10;;;;;;;;;;5065943;28;20049;-68
2023/04/27 06:10:38;;;;;;;21.83;16.23;;;;;;;;;;5069986;28;20076;-68
2023/04/27 06:13:04;;;;;;;22.30;16.02;;;;;;;;;;5065615;28;20053;-68
2023/04/27 06:15:30;;;;;;;21.88;16.08;;;;;;;;;;5071254;28;20135;-67
2023/04/27 06:17:57;;;;;;;23.30;16.10;;;;;;;;;;5064127;28;20518;-68
2023/04/27 06:20:23;;;;;;;22.73;16.40;;;;;;;;;;5070929;28;20056;-68
2023/04/27 06:22:50;;;;;;;22.65;16.65;;;;;;;;;;5055135;28;20067;-67
2023/04/27 06:25:16;;;;;;;28.40;18.80;;;;;;;;;;5051008;28;20124;-67
2023/04/27 06:27:42;;;;;;;27.15;16.85;;;;;;;;;;5037595;28;20056;-67
2023/04/27 06:30:09;;;;;;;22.65;16.83;;;;;;;;;;5068523;28;20067;-67
2023/04/27 06:32:36;;;;;;;21.88;16.58;;;;;;;;;;5066388;28;20045;-68
2023/04/27 06:35:02;;;;;;;22.38;17.30;;;;;;;;;;5057604;28;20476;-67
2023/04/27 06:37:28;;;;;;;24.05;17.55;;;;;;;;;;5049690;28;20553;-68
2023/04/27 06:39:55;;;;;;;25.15;17.08;;;;;;;;;;5050564;28;20095;-68
2023/04/27 06:42:21;;;;;;;23.90;17.40;;;;;;;;;;5050029;28;20049;-68
2023/04/27 06:44:48;;;;;;;22.83;16.85;;;;;;;;;;5051364;28;20131;-68
2023/04/27 06:47:14;;;;;;;28.25;18.55;;;;;;;;;;5044875;28;20084;-68
2023/04/27 06:49:41;;;;;;;24.95;17.73;;;;;;;;;;5065945;28;20083;-67
2023/04/27 06:52:07;;;;;;;25.23;18.35;;;;;;;;;;5061453;28;20860;-68
2023/04/27 06:54:33;;;;;;;27.25;19.20;;;;;;;;;;5064339;28;20131;-68
2023/04/27 06:57:00;;;;;;;26.67;19.50;;;;;;;;;;5071240;28;20067;-68
2023/04/27 06:59:27;;;;;;;24.17;18.60;;;;;;;;;;5066266;28;20082;-68
2023/04/27 07:01:53;;;;;;;23.67;18.65;;;;;;;;;;5074594;28;20053;-68
2023/04/27 07:04:20;;;;;;;28.60;20.20;;;;;;;;;;5070933;28;20079;-67
2023/04/27 07:06:46;;;;;;;29.00;20.92;;;;;;;;;;5057857;28;20037;-67
2023/04/27 07:09:13;;;;;;;28.25;20.05;;;;;;;;;;5071897;28;20048;-67
2023/04/27 07:11:52;;;;;;;26.65;19.48;;;;;;;;;;5071923;28;20044;-68
2023/04/27 07:14:18;;;;;;;29.50;20.10;;;;;;;;;;5069217;28;20044;-68
2023/04/27 07:16:46;;;;;;;28.15;19.80;;;;;;;;;;5063281;28;20045;-67
2023/04/27 07:19:12;;;;;;;26.20;19.05;;;;;;;;;;5072187;28;20052;-68
2023/04/27 07:21:39;;;;;;;27.07;18.53;;;;;;;;;;5067977;28;20052;-68
2023/04/27 07:24:06;;;;;;;26.33;18.55;;;;;;;;;;5068665;28;20052;-66
2023/04/27 07:26:32;;;;;;;22.20;17.70;;;;;;;;;;5063830;28;20048;-66
2023/04/27 07:28:59;;;;;;;27.48;18.60;;;;;;;;;;5071781;28;20059;-67
2023/04/27 07:31:30;;;;;;;25.35;18.00;;;;;;;;;;5050220;28;20067;-68
2023/04/27 07:33:57;;;;;;;28.23;18.92;;;;;;;;;;5072858;28;20447;-68
2023/04/27 07:36:23;;;;;;;23.15;18.00;;;;;;;;;;5052757;28;20045;-66
2023/04/27 07:38:50;;;;;;;23.05;17.23;;;;;;;;;;5059812;28;20487;-66
2023/04/27 07:41:16;;;;;;;27.70;17.73;;;;;;;;;;5058013;28;20492;-67
2023/04/27 07:43:43;;;;;;;25.75;17.73;;;;;;;;;;5052477;28;20071;-68
2023/04/27 07:46:10;;;;;;;25.48;18.70;;;;;;;;;;5060568;28;20144;-68
2023/04/27 07:48:38;;;;;;;24.33;17.48;;;;;;;;;;5073000;28;20064;-68
2023/04/27 07:51:04;;;;;;;25.77;17.67;;;;;;;;;;5069002;28;20079;-67
2023/04/27 07:53:33;;;;;;;25.80;18.30;;;;;;;;;;5073874;28;20048;-68
2023/04/27 07:56:00;;;;;;;23.25;17.05;;;;;;;;;;5064324;28;20411;-68
2023/04/27 07:58:26;;;;;;;22.17;16.85;;;;;;;;;;5073280;28;20059;-68
2023/04/27 08:00:52;;;;;;;23.30;17.23;;;;;;;;;;5057361;28;20053;-67
2023/04/27 08:03:19;;;;;;;24.40;17.52;;;;;;;;;;5053129;28;20131;-69
2023/04/27 08:05:46;;;;;;;25.98;17.35;;;;;;;;;;5052094;28;20053;-67
2023/04/27 08:08:12;;;;;;;25.00;17.63;;;;;;;;;;5052176;28;20094;-68
2023/04/27 08:10:41;;;;;;;23.67;16.80;;;;;;;;;;5052809;28;20056;-67
2023/04/27 08:13:08;;;;;;;24.17;17.08;;;;;;;;;;5043761;28;20139;-68
2023/04/27 08:15:35;;;;;;;22.70;16.70;;;;;;;;;;5053027;28;20056;-67
2023/04/27 08:18:02;;;;;;;24.60;17.00;;;;;;;;;;5072291;28;20086;-68
2023/04/27 08:20:28;;;;;;;22.92;16.27;;;;;;;;;;5073089;28;20543;-67
2023/04/27 08:22:55;;;;;;;22.95;16.73;;;;;;;;;;5068975;28;20049;-67
2023/04/27 08:25:21;;;;;;;28.00;17.63;;;;;;;;;;5062181;28;20044;-67
2023/04/27 08:27:48;;;;;;;20.85;16.63;;;;;;;;;;5072656;28;20045;-67
2023/04/27 08:30:15;;;;;;;20.67;17.35;;;;;;;;;;5067005;28;20044;-67
2023/04/27 08:32:41;;;;;;;24.67;15.65;;;;;;;;;;5052449;28;20555;-68
2023/04/27 08:35:08;;;;;;;19.05;15.98;;;;;;;;;;5051122;28;20041;-67
2023/04/27 08:37:34;;;;;;;20.88;15.30;;;;;;;;;;5052369;28;20132;-68
2023/04/27 08:40:03;;;;;;;24.17;16.65;;;;;;;;;;5051775;28;20482;-68
2023/04/27 08:42:30;;;;;;;23.30;15.85;;;;;;;;;;5054133;28;20102;-67
2023/04/27 08:44:56;;;;;;;19.92;14.88;;;;;;;;;;5060372;28;20045;-68
2023/04/27 08:47:22;;;;;;;19.40;14.57;;;;;;;;;;5072290;28;20167;-68
2023/04/27 08:50:07;;;;;;;20.73;14.85;;;;;;;;;;5072359;28;20044;-68
2023/04/27 08:52:36;;;;;;;22.85;15.50;;;;;;;;;;5072069;28;20400;-68
2023/04/27 08:55:03;;;;;;;20.85;14.65;;;;;;;;;;5071959;28;20051;-68
2023/04/27 08:57:30;;;;;;;22.38;13.93;;;;;;;;;;5070480;28;20056;-67
2023/04/27 08:59:58;;;;;;;18.95;14.18;;;;;;;;;;5071829;28;20135;-67
2023/04/27 09:02:26;;;;;;;20.15;13.88;;;;;;;;;;5057166;28;20583;-68
2023/04/27 09:04:52;;;;;;;18.10;13.70;;;;;;;;;;5070268;28;20054;-68
2023/04/27 09:07:19;;;;;;;16.75;13.80;;;;;;;;;;5051546;28;20120;-67
2023/04/27 09:09:47;;;;;;;18.30;13.73;;;;;;;;;;5051668;28;20052;-67
2023/04/27 09:12:17;;;;;;;20.27;14.07;;;;;;;;;;5051806;28;20044;-67
2023/04/27 09:14:55;;;;;;;21.42;13.43;;;;;;;;;;5064228;28;20079;-68
2023/04/27 09:17:25;;;;;;;17.75;13.80;;;;;;;;;;5071633;28;20055;-67
2023/04/27 09:19:52;;;;;;;15.95;12.80;;;;;;;;;;5053080;28;20057;-67
2023/04/27 09:22:18;;;;;;;17.40;12.77;;;;;;;;;;5071550;28;20048;-67
2023/04/27 09:24:51;;;;;;;18.83;12.55;;;;;;;;;;5071915;28;20529;-68
2023/04/27 09:27:18;;;;;;;14.45;12.18;;;;;;;;;;5041572;28;20492;-68
2023/04/27 09:29:45;;;;;;;15.77;12.07;;;;;;;;;;5051578;28;20083;-68
2023/04/27 09:32:15;;;;;;;16.98;11.82;;;;;;;;;;5051321;28;20045;-68
2023/04/27 09:34:43;;;;;;;17.63;13.05;;;;;;;;;;5051280;28;20052;-68
2023/04/27 09:37:09;;;;;;;17.25;13.32;;;;;;;;;;5067723;28;20483;-68
2023/04/27 09:39:36;;;;;;;17.17;11.98;;;;;;;;;;5056618;28;20496;-68
2023/04/27 09:42:03;;;;;;;16.75;12.13;;;;;;;;;;5058292;28;20049;-68
2023/04/27 09:44:30;;;;;;;15.03;12.67;;;;;;;;;;5051208;28;20044;-69
2023/04/27 09:46:57;;;;;;;16.40;11.57;;;;;;;;;;5046720;28;20500;-67
2023/04/27 09:49:24;;;;;;;16.70;11.70;;;;;;;;;;5062516;28;20044;-67
2023/04/27 09:51:53;;;;;;;14.38;11.73;;;;;;;;;;5069763;28;20052;-67
2023/04/27 09:54:20;;;;;;;15.15;11.30;;;;;;;;;;5051108;28;20124;-67
2023/04/27 09:57:02;;;;;;;17.67;12.55;;;;;;;;;;5058285;28;20499;-68
2023/04/27 09:59:37;;;;;;;18.35;11.90;;;;;;;;;;5070811;28;20400;-68
2023/04/27 10:02:04;;;;;;;16.35;11.60;;;;;;;;;;5051251;28;20049;-67
2023/04/27 10:04:49;;;;;;;19.20;12.25;;;;;;;;;;5050970;28;20398;-68
2023/04/27 10:07:16;;;;;;;16.48;11.57;;;;;;;;;;5061470;28;20044;-68
2023/04/27 10:09:52;;;;;;;15.53;11.70;;;;;;;;;;5070907;28;20051;-68
2023/04/27 10:12:20;;;;;;;15.88;13.02;;;;;;;;;;5067047;28;20119;-69
2023/04/27 10:14:54;;;;;;;15.55;12.65;;;;;;;;;;5045650;28;20092;-67
2023/04/27 10:17:30;;;;;;;16.08;11.90;;;;;;;;;;5051138;28;20076;-69
2023/04/27 10:20:01;;;;;;;15.93;11.55;;;;;;;;;;5050810;28;20547;-69
2023/04/27 10:22:41;;;;;;;15.93;10.32;;;;;;;;;;5051336;28;20053;-68
2023/04/27 10:25:20;;;;;;;18.80;11.57;;;;;;;;;;5051051;28;20136;-68
2023/04/27 10:27:48;;;;;;;13.52;10.68;;;;;;;;;;5050781;28;20053;-68
2023/04/27 10:30:16;;;;;;;16.23;11.00;;;;;;;;;;5052489;28;20579;-67
2023/04/27 10:32:50;;;;;;;18.70;12.93;;;;;;;;;;5054983;28;20043;-67
2023/04/27 10:35:16;;;;;;;20.13;13.45;;;;;;;;;;5054901;28;20045;-68
2023/04/27 10:37:43;;;;;;;17.85;13.70;;;;;;;;;;5054622;28;20160;-68
2023/04/27 10:40:13;;;;;;;15.27;12.77;;;;;;;;;;5054548;28;20048;-68
2023/04/27 10:42:40;;;;;;;16.30;12.98;;;;;;;;;;5053300;28;20057;-66
2023/04/27 10:45:07;;;;;;;16.05;12.75;;;;;;;;;;5040810;28;20136;-68
2023/04/27 10:47:37;;;;;;;18.75;12.40;;;;;;;;;;5046707;28;20483;-68
2023/04/27 10:50:05;;;;;;;18.52;12.48;;;;;;;;;;5074080;28;20044;-68
2023/04/27 10:52:31;;;;;;;19.37;13.07;;;;;;;;;;5074727;28;20044;-68
2023/04/27 10:54:57;;;;;;;14.40;11.48;;;;;;;;;;5074144;28;20511;-68
2023/04/27 10:57:24;;;;;;;18.20;12.98;;;;;;;;;;5074097;28;20063;-68
2023/04/27 10:59:51;;;;;;;19.27;11.93;;;;;;;;;;5059903;28;20083;-68
2023/04/27 11:02:25;;;;;;;15.40;12.02;;;;;;;;;;5074473;28;20063;-69
2023/04/27 11:04:52;;;;;;;15.52;12.25;;;;;;;;;;5060691;28;20059;-67
2023/04/27 11:07:26;;;;;;;18.35;13.18;;;;;;;;;;5054034;28;20488;-68
2023/04/27 11:09:53;;;;;;;17.73;12.32;;;;;;;;;;5054295;28;20130;-67
2023/04/27 11:12:20;;;;;;;17.48;12.55;;;;;;;;;;5049692;28;20045;-68
2023/04/27 11:14:46;;;;;;;17.80;12.27;;;;;;;;;;5068195;28;20131;-68
2023/04/27 11:17:13;;;;;;;16.05;12.63;;;;;;;;;;5070343;28;20049;-68
2023/04/27 11:19:46;;;;;;;18.98;13.25;;;;;;;;;;5066343;28;20049;-69
2023/04/27 11:22:15;;;;;;;18.80;14.32;;;;;;;;;;5073868;28;20109;-69
2023/04/27 11:24:48;;;;;;;21.30;14.38;;;;;;;;;;5074092;28;20061;-68
2023/04/27 11:27:15;;;;;;;19.85;13.88;;;;;;;;;;5073860;28;20040;-68
2023/04/27 11:29:41;;;;;;;20.17;14.23;;;;;;;;;;5067404;28;20500;-68
2023/04/27 11:32:17;;;;;;;19.65;14.80;;;;;;;;;;5052600;28;20048;-68
2023/04/27 11:34:48;;;;;;;20.70;14.70;;;;;;;;;;5053582;28;20131;-68
2023/04/27 11:37:19;;;;;;;18.70;14.32;;;;;;;;;;5062671;28;20559;-67
2023/04/27 11:39:46;;;;;;;23.42;15.27;;;;;;;;;;5053833;28;20076;-68
2023/04/27 11:42:20;;;;;;;22.02;16.77;;;;;;;;;;5052567;28;20049;-67
2023/04/27 11:44:51;;;;;;;28.85;18.83;;;;;;;;;;5053578;28;20048;-67
2023/04/27 11:47:18;;;;;;;29.23;21.80;;;;;;;;;;5053438;28;20049;-68
2023/04/27 11:49:48;;;;;;;29.45;21.63;;;;;;;;;;5067362;28;20044;-69
2023/04/27 11:52:15;;;;;;;35.38;22.98;;;;;;;;;;5073293;28;20040;-68
2023/04/27 11:54:52;;;;;;;40.15;22.35;;;;;;;;;;5059586;28;20077;-68
2023/04/27 11:57:28;;;;;;;34.85;23.85;;;;;;;;;;5046584;28;20080;-69
2023/04/27 11:59:55;;;;;;;38.40;25.98;;;;;;;;;;5057942;28;20075;-69
2023/04/27 12:02:22;;;;;;;40.72;26.27;;;;;;;;;;5073492;28;20075;-68
2023/04/27 12:04:49;;;;;;;33.70;24.53;;;;;;;;;;5070664;28;20461;-68
2023/04/27 12:07:16;;;;;;;42.80;27.15;;;;;;;;;;5072665;28;20041;-69
2023/04/27 12:09:42;;;;;;;34.38;24.58;;;;;;;;;;5069263;28;20406;-69
2023/04/27 12:12:10;;;;;;;33.75;25.17;;;;;;;;;;5073099;28;20037;-68
2023/04/27 12:14:36;;;;;;;44.75;29.42;;;;;;;;;;5068936;28;20040;-69
2023/04/27 12:17:02;;;;;;;42.83;27.70;;;;;;;;;;5072125;28;20049;-69
2023/04/27 12:19:30;;;;;;;60.10;31.92;;;;;;;;;;5067356;28;20052;-68
2023/04/27 12:21:56;;;;;;;46.07;30.23;;;;;;;;;;5071609;28;20389;-68
2023/04/27 12:24:23;;;;;;;43.85;28.70;;;;;;;;;;5063740;28;20311;-68
2023/04/27 12:26:50;;;;;;;61.13;31.23;;;;;;;;;;5073080;28;20049;-68
2023/04/27 12:29:16;;;;;;;76.80;34.95;;;;;;;;;;5065325;28;20056;-67
2023/04/27 12:31:43;;;;;;;65.70;35.55;;;;;;;;;;5073306;28;20087;-67
2023/04/27 12:34:10;;;;;;;47.45;31.65;;;;;;;;;;5060245;28;20400;-67
2023/04/27 12:36:36;;;;;;;48.55;32.25;;;;;;;;;;5071919;28;20037;-67
2023/04/27 12:39:13;;;;;;;65.15;36.08;;;;;;;;;;5064186;28;20091;-67
2023/04/27 12:41:40;;;;;;;90.78;43.55;;;;;;;;;;5072575;28;20056;-67
2023/04/27 12:44:07;;;;;;;66.50;37.08;;;;;;;;;;5060310;28;20071;-70
2023/04/27 12:46:33;;;;;;;78.45;43.05;;;;;;;;;;5063913;28;20507;-68
2023/04/27 12:49:00;;;;;;;113.57;49.75;;;;;;;;;;5057144;28;20048;-67
2023/04/27 12:51:30;;;;;;;77.90;40.85;;;;;;;;;;5054259;28;20404;-69
2023/04/27 12:53:56;;;;;;;82.38;42.58;;;;;;;;;;5052349;28;20063;-69
2023/04/27 12:56:26;;;;;;;94.85;47.63;;;;;;;;;;5051723;28;20052;-69
2023/04/27 12:58:54;;;;;;;93.97;47.22;;;;;;;;;;5050745;28;20052;-69
2023/04/27 13:01:23;;;;;;;90.80;46.65;;;;;;;;;;5052059;28;20144;-69
2023/04/27 13:03:50;;;;;;;86.03;43.85;;;;;;;;;;5052083;28;20052;-69
2023/04/27 13:06:17;;;;;;;83.55;41.75;;;;;;;;;;5052105;28;20059;-70
2023/04/27 13:08:44;;;;;;;83.35;44.03;;;;;;;;;;5051859;28;20045;-69
2023/04/27 13:11:10;;;;;;;89.83;47.03;;;;;;;;;;5066952;28;20055;-70
2023/04/27 13:13:37;;;;;;;79.60;45.30;;;;;;;;;;5058211;28;20065;-69
2023/04/27 13:16:03;;;;;;;68.25;43.33;;;;;;;;;;5051644;28;20128;-69
2023/04/27 13:18:30;;;;;;;92.57;45.42;;;;;;;;;;5051340;28;20053;-71
2023/04/27 13:21:03;;;;;;;96.15;46.95;;;;;;;;;;5051807;28;20053;-70
2023/04/27 13:23:30;;;;;;;61.88;40.28;;;;;;;;;;5051715;28;20415;-70
2023/04/27 13:25:56;;;;;;;67.68;40.65;;;;;;;;;;5051149;28;20135;-71
2023/04/27 13:28:23;;;;;;;72.80;43.90;;;;;;;;;;5057323;28;20040;-72
2023/04/27 13:30:50;;;;;;;56.28;38.47;;;;;;;;;;5071687;28;20044;-72
2023/04/27 13:33:16;;;;;;;48.53;36.33;;;;;;;;;;5050415;28;20051;-72
2023/04/27 13:35:49;;;;;;;56.75;39.40;;;;;;;;;;5050378;28;20068;-71
2023/04/27 13:38:15;;;;;;;61.40;40.83;;;;;;;;;;5051112;28;20492;-71
2023/04/27 13:40:42;;;;;;;67.32;44.70;;;;;;;;;;5063870;28;20313;-71
2023/04/27 13:43:08;;;;;;;50.35;39.58;;;;;;;;;;5071260;28;20052;-71
2023/04/27 13:45:35;;;;;;;49.63;38.38;;;;;;;;;;5071278;28;20492;-71
2023/04/27 13:48:01;;;;;;;45.95;36.70;;;;;;;;;;5071156;28;20463;-71
2023/04/27 13:50:28;;;;;;;48.00;36.53;;;;;;;;;;5055144;28;20051;-73
2023/04/27 13:52:54;;;;;;;44.25;33.85;;;;;;;;;;5071092;28;20049;-73
2023/04/27 13:55:21;;;;;;;51.17;35.80;;;;;;;;;;5056802;28;20080;-71
2023/04/27 13:57:47;;;;;;;42.05;31.65;;;;;;;;;;5067073;28;20501;-71
2023/04/27 14:00:14;;;;;;;44.72;34.03;;;;;;;;;;5060454;28;20080;-72
2023/04/27 14:02:40;;;;;;;41.97;33.35;;;;;;;;;;5052525;28;20506;-71
2023/04/27 14:05:07;;;;;;;39.55;29.90;;;;;;;;;;5061246;28;20052;-71
2023/04/27 14:07:34;;;;;;;36.50;29.17;;;;;;;;;;5056276;28;20048;-70
2023/04/27 14:10:02;;;;;;;35.53;29.42;;;;;;;;;;5058865;28;20049;-70
2023/04/27 14:12:31;;;;;;;40.70;29.42;;;;;;;;;;5050180;28;20127;-72
2023/04/27 14:14:58;;;;;;;38.90;30.27;;;;;;;;;;5064810;28;20049;-72
2023/04/27 14:17:24;;;;;;;40.47;31.30;;;;;;;;;;5071190;28;20040;-73
2023/04/27 14:19:51;;;;;;;35.92;29.05;;;;;;;;;;5070991;28;20060;-72
2023/04/27 14:22:17;;;;;;;37.03;29.70;;;;;;;;;;5063527;28;20048;-72